createdAt,value
2022-09-15T00:00:10.967Z,81.78
2022-09-15T00:01:10.897Z,81.30
2022-09-15T00:02:10.973Z,81.68
2022-09-15T00:03:10.785Z,81.64
2022-09-15T00:04:10.671Z,81.59
2022-09-15T00:05:10.591Z,81.59
2022-09-15T00:06:10.514Z,81.93
2022-09-15T00:07:10.464Z,81.78
2022-09-15T00:08:10.364Z,82.07
2022-09-15T00:09:10.289Z,81.68
2022-09-15T00:10:10.215Z,82.16
2022-09-15T00:11:10.165Z,82.12
2022-09-15T00:12:10.060Z,81.64
2022-09-15T00:13:09.989Z,81.68
2022-09-15T00:14:09.912Z,81.07
2022-09-15T00:15:09.836Z,81.01
2022-09-15T00:16:11.657Z,81.40
2022-09-15T00:17:09.788Z,81.10
2022-09-15T00:18:09.912Z,81.16
2022-09-15T00:19:09.535Z,80.78
2022-09-15T00:20:09.462Z,81.64
2022-09-15T00:21:09.384Z,81.68
2022-09-15T00:22:09.313Z,82.12
2022-09-15T00:23:09.234Z,82.35
2022-09-15T00:24:09.157Z,82.31
2022-09-15T00:25:09.083Z,82.16
2022-09-15T00:26:09.009Z,82.41
2022-09-15T00:27:08.949Z,82.07
2022-09-15T00:28:08.859Z,81.78
2022-09-15T00:29:08.781Z,82.03
2022-09-15T00:30:08.705Z,81.78
2022-09-15T00:31:08.748Z,81.64
2022-09-15T00:32:08.561Z,81.84
2022-09-15T00:33:08.479Z,82.07
2022-09-15T00:34:08.405Z,82.07
2022-09-15T00:35:08.330Z,81.84
2022-09-15T00:36:08.253Z,81.01
2022-09-15T00:37:08.178Z,81.26
2022-09-15T00:38:08.102Z,81.26
2022-09-15T00:39:08.041Z,81.20
2022-09-15T00:40:08.091Z,80.78
2022-09-15T00:41:07.874Z,80.34
2022-09-15T00:42:07.801Z,80.43
2022-09-15T00:43:07.746Z,80.15
2022-09-15T00:44:07.655Z,80.24
2022-09-15T00:45:07.574Z,80.15
2022-09-15T00:46:07.589Z,80.11
2022-09-15T00:47:19.117Z,80.53
2022-09-15T00:48:07.347Z,79.91
2022-09-15T00:49:07.272Z,80.11
2022-09-15T00:50:07.197Z,80.15
2022-09-15T00:51:07.122Z,80.01
2022-09-15T00:52:07.044Z,80.11
2022-09-15T00:53:06.972Z,79.86
2022-09-15T00:54:06.895Z,80.11
2022-09-15T00:55:06.821Z,79.63
2022-09-15T00:56:06.742Z,79.28
2022-09-15T00:57:06.669Z,79.24
2022-09-15T00:58:06.594Z,79.34
2022-09-15T00:59:06.631Z,78.61
2022-09-15T01:00:06.441Z,78.67
2022-09-15T01:01:06.462Z,78.99
2022-09-15T01:02:06.393Z,79.09
2022-09-15T01:03:06.216Z,78.86
2022-09-15T01:04:06.138Z,78.90
2022-09-15T01:05:06.064Z,79.38
2022-09-15T01:06:05.988Z,79.72
2022-09-15T01:07:05.914Z,79.67
2022-09-15T01:08:05.840Z,79.67
2022-09-15T01:09:05.762Z,79.57
2022-09-15T01:10:05.692Z,79.28
2022-09-15T01:11:05.613Z,79.76
2022-09-15T01:12:05.535Z,79.38
2022-09-15T01:13:05.463Z,79.47
2022-09-15T01:14:05.387Z,79.67
2022-09-15T01:15:05.329Z,79.67
2022-09-15T01:16:05.294Z,79.47
2022-09-15T01:17:05.162Z,79.28
2022-09-15T01:18:05.083Z,79.72
2022-09-15T01:19:05.009Z,79.38
2022-09-15T01:20:04.933Z,79.47
2022-09-15T01:21:04.858Z,79.28
2022-09-15T01:22:04.799Z,79.19
2022-09-15T01:23:04.708Z,79.57
2022-09-15T01:24:04.631Z,79.38
2022-09-15T01:25:04.560Z,79.47
2022-09-15T01:26:04.484Z,78.80
2022-09-15T01:27:24.010Z,78.52
2022-09-15T01:28:04.329Z,78.52
2022-09-15T01:29:04.255Z,78.70
2022-09-15T01:30:04.177Z,78.70
2022-09-15T01:31:04.127Z,78.90
2022-09-15T01:32:04.146Z,78.99
2022-09-15T01:33:03.988Z,78.80
2022-09-15T01:34:03.878Z,79.57
2022-09-15T01:35:03.804Z,78.70
2022-09-15T01:36:03.724Z,78.52
2022-09-15T01:37:03.650Z,78.70
2022-09-15T01:38:03.575Z,78.61
2022-09-15T01:39:03.508Z,78.70
2022-09-15T01:40:03.490Z,78.90
2022-09-15T01:41:03.354Z,78.99
2022-09-15T01:42:03.324Z,78.99
2022-09-15T01:43:03.201Z,78.80
2022-09-15T01:44:03.122Z,78.61
2022-09-15T01:45:03.049Z,78.52
2022-09-15T01:46:03.074Z,78.42
2022-09-15T01:47:02.920Z,78.52
2022-09-15T01:48:02.824Z,78.32
2022-09-15T01:49:02.748Z,78.42
2022-09-15T01:50:02.673Z,78.42
2022-09-15T01:51:02.602Z,78.03
2022-09-15T01:52:02.522Z,77.94
2022-09-15T01:53:02.449Z,78.13
2022-09-15T01:54:02.369Z,77.56
2022-09-15T01:55:02.497Z,77.46
2022-09-15T01:56:02.224Z,77.75
2022-09-15T01:57:02.195Z,77.75
2022-09-15T01:58:02.078Z,77.46
2022-09-15T01:59:01.995Z,77.36
2022-09-15T02:00:01.920Z,77.36
2022-09-15T02:01:01.926Z,77.46
2022-09-15T02:02:01.818Z,77.46
2022-09-15T02:03:01.711Z,77.65
2022-09-15T02:04:01.616Z,77.46
2022-09-15T02:05:01.555Z,77.36
2022-09-15T02:06:01.467Z,77.75
2022-09-15T02:07:01.396Z,77.36
2022-09-15T02:08:01.318Z,77.65
2022-09-15T02:09:01.245Z,77.36
2022-09-15T02:10:01.167Z,77.36
2022-09-15T02:11:01.097Z,76.88
2022-09-15T02:12:01.054Z,77.08
2022-09-15T02:13:00.940Z,77.17
2022-09-15T02:14:00.865Z,77.17
2022-09-15T02:15:00.793Z,76.98
2022-09-15T02:16:00.778Z,76.59
2022-09-15T02:17:00.644Z,76.40
2022-09-15T02:18:00.564Z,76.59
2022-09-15T02:19:00.512Z,76.12
2022-09-15T02:20:00.413Z,75.82
2022-09-15T02:21:00.340Z,75.54
2022-09-15T02:22:00.263Z,75.63
2022-09-15T02:23:00.189Z,75.45
2022-09-15T02:24:00.111Z,75.35
2022-09-15T02:25:00.039Z,74.96
2022-09-15T02:25:59.961Z,74.96
2022-09-15T02:26:59.887Z,74.39
2022-09-15T02:27:59.813Z,73.91
2022-09-15T02:28:59.737Z,74.01
2022-09-15T02:29:59.661Z,74.19
2022-09-15T02:30:59.586Z,73.72
2022-09-15T02:32:02.581Z,73.43
2022-09-15T02:32:59.485Z,73.62
2022-09-15T02:33:59.360Z,73.04
2022-09-15T02:34:59.300Z,73.33
2022-09-15T02:35:59.391Z,73.04
2022-09-15T02:36:59.134Z,73.04
2022-09-15T02:37:59.057Z,72.56
2022-09-15T02:38:58.987Z,72.75
2022-09-15T02:39:58.975Z,72.66
2022-09-15T02:40:59.030Z,72.47
2022-09-15T02:41:58.756Z,72.37
2022-09-15T02:42:58.718Z,72.28
2022-09-15T02:43:58.754Z,72.56
2022-09-15T02:44:58.528Z,71.61
2022-09-15T02:45:58.511Z,71.70
2022-09-15T02:46:58.379Z,71.98
2022-09-15T02:47:58.307Z,71.51
2022-09-15T02:48:58.229Z,71.61
2022-09-15T02:49:58.152Z,71.41
2022-09-15T02:50:58.100Z,70.84
2022-09-15T02:51:58.000Z,70.93
2022-09-15T02:52:57.925Z,71.03
2022-09-15T02:53:57.849Z,71.12
2022-09-15T02:54:57.776Z,70.64
2022-09-15T02:55:57.697Z,71.12
2022-09-15T02:56:57.624Z,70.84
2022-09-15T02:57:57.547Z,71.12
2022-09-15T02:58:57.472Z,70.74
2022-09-15T02:59:57.396Z,70.93
2022-09-15T03:00:57.408Z,70.84
2022-09-15T03:01:57.284Z,70.64
2022-09-15T03:02:57.172Z,70.36
2022-09-15T03:03:57.096Z,70.07
2022-09-15T03:04:57.018Z,70.45
2022-09-15T03:05:56.946Z,70.36
2022-09-15T03:06:56.889Z,70.36
2022-09-15T03:07:56.794Z,70.55
2022-09-15T03:08:56.719Z,69.78
2022-09-15T03:09:56.675Z,69.97
2022-09-15T03:10:56.771Z,70.07
2022-09-15T03:11:56.492Z,69.68
2022-09-15T03:12:56.418Z,69.49
2022-09-15T03:13:56.341Z,69.68
2022-09-15T03:14:56.417Z,69.97
2022-09-15T03:15:56.260Z,69.97
2022-09-15T03:16:56.114Z,70.26
2022-09-15T03:17:56.039Z,69.78
2022-09-15T03:18:55.965Z,69.78
2022-09-15T03:19:55.886Z,70.26
2022-09-15T03:20:55.814Z,70.45
2022-09-15T03:21:55.737Z,70.45
2022-09-15T03:22:55.682Z,70.17
2022-09-15T03:23:55.580Z,70.84
2022-09-15T03:24:55.509Z,70.84
2022-09-15T03:25:55.432Z,70.84
2022-09-15T03:26:55.359Z,70.90
2022-09-15T03:27:55.281Z,71.51
2022-09-15T03:28:55.308Z,71.41
2022-09-15T03:29:55.129Z,71.80
2022-09-15T03:30:55.057Z,71.70
2022-09-15T03:31:55.021Z,71.76
2022-09-15T03:32:54.903Z,72.28
2022-09-15T03:33:54.826Z,72.28
2022-09-15T03:34:58.348Z,72.08
2022-09-15T03:35:54.673Z,72.91
2022-09-15T03:36:54.599Z,72.75
2022-09-15T03:37:54.521Z,72.53
2022-09-15T03:38:54.963Z,72.72
2022-09-15T03:39:54.461Z,72.18
2022-09-15T03:40:54.639Z,72.18
2022-09-15T03:41:54.221Z,72.08
2022-09-15T03:42:54.344Z,72.56
2022-09-15T03:43:54.066Z,71.61
2022-09-15T03:44:53.992Z,71.89
2022-09-15T03:45:53.996Z,72.63
2022-09-15T03:46:53.841Z,73.35
2022-09-15T03:47:53.765Z,74.79
2022-09-15T03:48:53.687Z,75.27
2022-09-15T03:49:53.612Z,75.85
2022-09-15T03:50:53.539Z,75.43
2022-09-15T03:51:53.458Z,75.23
2022-09-15T03:52:56.778Z,75.43
2022-09-15T03:53:53.360Z,75.33
2022-09-15T03:54:53.249Z,75.33
2022-09-15T03:55:53.154Z,74.66
2022-09-15T03:56:53.081Z,74.27
2022-09-15T03:57:53.002Z,74.08
2022-09-15T03:58:53.049Z,73.80
2022-09-15T03:59:52.849Z,74.08
2022-09-15T04:00:52.865Z,73.80
2022-09-15T04:01:52.810Z,73.90
2022-09-15T04:02:52.620Z,73.80
2022-09-15T04:03:52.541Z,73.51
2022-09-15T04:04:52.466Z,73.70
2022-09-15T04:05:52.389Z,73.41
2022-09-15T04:06:52.322Z,73.80
2022-09-15T04:07:52.236Z,73.80
2022-09-15T04:08:52.243Z,73.61
2022-09-15T04:09:52.088Z,73.03
2022-09-15T04:10:52.025Z,73.22
2022-09-15T04:11:51.932Z,73.51
2022-09-15T04:12:51.856Z,73.41
2022-09-15T04:13:51.779Z,73.61
2022-09-15T04:14:51.705Z,73.32
2022-09-15T04:15:51.675Z,73.41
2022-09-15T04:16:51.588Z,73.51
2022-09-15T04:17:51.471Z,73.51
2022-09-15T04:18:51.413Z,73.80
2022-09-15T04:19:51.661Z,72.94
2022-09-15T04:20:51.242Z,73.51
2022-09-15T04:21:51.167Z,73.51
2022-09-15T04:22:51.093Z,73.61
2022-09-15T04:23:51.176Z,73.22
2022-09-15T04:24:50.945Z,73.13
2022-09-15T04:25:50.861Z,73.22
2022-09-15T04:26:50.801Z,72.64
2022-09-15T04:27:50.710Z,72.84
2022-09-15T04:28:50.633Z,72.84
2022-09-15T04:29:50.554Z,72.99
2022-09-15T04:30:50.480Z,72.45
2022-09-15T04:31:50.518Z,72.27
2022-09-15T04:32:50.528Z,72.27
2022-09-15T04:33:50.250Z,72.07
2022-09-15T04:34:50.176Z,72.17
2022-09-15T04:35:50.095Z,72.17
2022-09-15T04:36:50.022Z,72.36
2022-09-15T04:37:49.945Z,72.17
2022-09-15T04:38:49.871Z,72.13
2022-09-15T04:39:49.884Z,72.55
2022-09-15T04:40:49.714Z,72.55
2022-09-15T04:41:49.676Z,72.64
2022-09-15T04:42:49.580Z,72.74
2022-09-15T04:43:49.484Z,72.64
2022-09-15T04:44:49.409Z,72.71
2022-09-15T04:45:49.336Z,72.61
2022-09-15T04:46:49.373Z,73.09
2022-09-15T04:47:49.211Z,72.71
2022-09-15T04:48:49.123Z,72.99
2022-09-15T04:49:49.047Z,74.05
2022-09-15T04:50:48.966Z,74.15
2022-09-15T04:51:48.879Z,74.15
2022-09-15T04:52:48.802Z,73.95
2022-09-15T04:53:48.724Z,73.76
2022-09-15T04:54:48.648Z,74.24
2022-09-15T04:55:48.570Z,73.95
2022-09-15T04:56:48.494Z,73.95
2022-09-15T04:57:48.418Z,74.15
2022-09-15T04:58:48.357Z,74.24
2022-09-15T04:59:48.263Z,74.15
2022-09-15T05:00:48.227Z,73.57
2022-09-15T05:01:48.182Z,73.66
2022-09-15T05:02:48.035Z,73.76
2022-09-15T05:03:47.957Z,73.57
2022-09-15T05:04:47.879Z,73.66
2022-09-15T05:05:47.805Z,73.38
2022-09-15T05:06:47.735Z,73.28
2022-09-15T05:07:47.653Z,73.66
2022-09-15T05:08:47.608Z,72.99
2022-09-15T05:09:47.499Z,73.09
2022-09-15T05:10:47.423Z,72.61
2022-09-15T05:11:47.347Z,72.52
2022-09-15T05:12:47.267Z,72.90
2022-09-15T05:13:47.193Z,72.13
2022-09-15T05:14:47.138Z,72.32
2022-09-15T05:15:47.091Z,72.71
2022-09-15T05:16:46.961Z,72.42
2022-09-15T05:17:46.886Z,72.32
2022-09-15T05:18:46.807Z,72.42
2022-09-15T05:19:46.737Z,72.58
2022-09-15T05:20:46.653Z,73.05
2022-09-15T05:21:46.599Z,73.15
2022-09-15T05:22:46.501Z,73.09
2022-09-15T05:23:46.428Z,73.15
2022-09-15T05:24:46.347Z,73.05
2022-09-15T05:25:46.271Z,72.96
2022-09-15T05:26:46.195Z,72.86
2022-09-15T05:27:46.126Z,72.67
2022-09-15T05:28:46.045Z,72.86
2022-09-15T05:29:45.963Z,72.29
2022-09-15T05:30:45.902Z,72.67
2022-09-15T05:31:45.901Z,72.48
2022-09-15T05:32:45.732Z,72.38
2022-09-15T05:33:45.655Z,73.24
2022-09-15T05:34:45.578Z,73.44
2022-09-15T05:37:19.786Z,73.82
2022-09-15T05:38:17.937Z,74.11
2022-09-15T05:39:17.863Z,74.49
2022-09-15T05:40:17.845Z,74.58
2022-09-15T05:41:17.716Z,75.54
2022-09-15T05:42:17.629Z,75.16
2022-09-15T05:43:17.553Z,75.64
2022-09-15T05:44:17.677Z,75.45
2022-09-15T05:45:17.398Z,76.89
2022-09-15T05:46:17.410Z,77.51
2022-09-15T05:47:17.247Z,78.47
2022-09-15T05:48:17.167Z,78.22
2022-09-15T05:49:17.127Z,78.47
2022-09-15T05:50:17.355Z,78.32
2022-09-15T05:51:16.936Z,78.13
2022-09-15T05:52:16.856Z,77.36
2022-09-15T05:53:16.817Z,77.46
2022-09-15T05:54:16.938Z,77.17
2022-09-15T05:55:16.627Z,76.79
2022-09-15T05:56:16.548Z,76.40
2022-09-15T05:57:16.664Z,77.17
2022-09-15T05:58:16.743Z,77.46
2022-09-15T05:59:16.354Z,78.19
2022-09-15T06:01:16.166Z,78.57
2022-09-15T06:02:16.166Z,79.05
2022-09-15T06:03:16.087Z,79.18
2022-09-15T06:04:16.236Z,79.72
2022-09-15T06:05:15.861Z,79.62
2022-09-15T06:06:16.018Z,80.10
2022-09-15T06:07:15.705Z,79.75
2022-09-15T06:08:15.865Z,79.37
2022-09-15T06:09:15.651Z,79.18
2022-09-15T06:10:15.511Z,79.43
2022-09-15T06:11:15.400Z,80.00
2022-09-15T06:12:15.321Z,80.48
2022-09-15T06:13:15.243Z,81.63
2022-09-15T06:14:15.170Z,82.40
2022-09-15T06:15:15.094Z,82.78
2022-09-15T06:16:15.079Z,82.87
2022-09-15T06:17:14.972Z,82.97
2022-09-15T06:18:14.880Z,82.97
2022-09-15T06:19:14.789Z,82.01
2022-09-15T06:20:14.709Z,81.48
2022-09-15T06:21:14.635Z,80.58
2022-09-15T06:22:14.556Z,80.19
2022-09-15T06:23:14.480Z,80.29
2022-09-15T06:24:14.751Z,80.58
2022-09-15T06:25:14.349Z,81.82
2022-09-15T06:26:14.455Z,81.73
2022-09-15T06:27:14.175Z,81.63
2022-09-15T06:28:14.098Z,80.77
2022-09-15T06:29:14.036Z,81.25
2022-09-15T06:30:13.944Z,81.00
2022-09-15T06:31:13.869Z,80.81
2022-09-15T06:32:13.831Z,81.10
2022-09-15T06:33:13.716Z,80.90
2022-09-15T06:34:13.716Z,82.30
2022-09-15T06:35:13.563Z,83.01
2022-09-15T06:36:13.486Z,83.11
2022-09-15T06:37:13.410Z,84.31
2022-09-15T06:38:13.335Z,84.59
2022-09-15T06:39:13.259Z,83.78
2022-09-15T06:40:13.277Z,83.39
2022-09-15T06:41:13.106Z,83.49
2022-09-15T06:42:14.052Z,83.97
2022-09-15T06:43:12.957Z,83.78
2022-09-15T06:44:12.880Z,83.87
2022-09-15T06:45:12.802Z,83.87
2022-09-15T06:46:12.775Z,85.21
2022-09-15T06:47:12.650Z,85.75
2022-09-15T06:48:24.546Z,85.84
2022-09-15T06:49:12.497Z,86.90
2022-09-15T06:50:12.460Z,87.18
2022-09-15T06:51:12.383Z,86.80
2022-09-15T06:52:12.318Z,85.75
2022-09-15T06:53:12.196Z,84.88
2022-09-15T06:54:12.122Z,84.02
2022-09-15T06:55:12.091Z,84.12
2022-09-15T06:56:11.975Z,83.16
2022-09-15T06:57:11.888Z,83.36
2022-09-15T06:58:11.812Z,86.61
2022-09-15T06:59:11.736Z,86.99
2022-09-15T07:00:11.658Z,86.22
2022-09-15T07:01:11.584Z,85.55
2022-09-15T07:02:11.675Z,84.31
2022-09-15T07:03:11.889Z,84.59
2022-09-15T07:04:11.407Z,83.93
2022-09-15T07:05:11.280Z,83.93
2022-09-15T07:06:11.222Z,84.12
2022-09-15T07:07:11.127Z,84.64
2022-09-15T07:08:11.392Z,84.88
2022-09-15T07:09:10.973Z,84.12
2022-09-15T07:10:10.899Z,84.59
2022-09-15T07:11:10.857Z,85.75
2022-09-15T07:12:10.780Z,88.33
2022-09-15T07:13:10.768Z,89.72
2022-09-15T07:14:10.629Z,89.72
2022-09-15T07:18:10.491Z,92.58
2022-09-15T07:19:10.221Z,91.53
2022-09-15T07:20:10.179Z,90.58
2022-09-15T07:21:10.098Z,90.86
2022-09-15T07:22:10.222Z,91.63
2022-09-15T07:25:10.250Z,91.15
2022-09-15T07:28:10.278Z,93.83
2022-09-15T07:29:09.458Z,94.89
2022-09-15T07:35:09.004Z,99.10
2022-09-15T07:36:08.960Z,97.85
2022-09-15T08:19:52.065Z,99.99
2022-09-15T08:20:51.785Z,99.99
2022-09-15T08:21:51.707Z,99.99
2022-09-15T08:22:51.642Z,99.99
2022-09-15T08:23:51.772Z,99.99
2022-09-15T08:24:51.783Z,99.99
2022-09-15T08:28:51.318Z,99.99
2022-09-15T08:29:51.113Z,99.99
2022-09-15T08:30:51.300Z,99.99
2022-09-15T08:31:51.463Z,99.99
2022-09-15T08:32:51.087Z,99.99
2022-09-15T08:34:50.926Z,99.99
2022-09-15T08:48:49.665Z,99.99
2022-09-15T08:49:52.321Z,99.99
2022-09-15T08:50:49.519Z,99.99
2022-09-15T08:52:49.571Z,99.99
2022-09-15T08:53:49.491Z,99.99
2022-09-15T08:56:49.067Z,99.99
2022-09-15T08:57:48.997Z,99.99
2022-09-15T08:58:49.315Z,99.99
2022-09-15T08:59:48.844Z,99.99
2022-09-15T09:00:49.370Z,99.99
2022-09-15T09:02:48.676Z,99.99
2022-09-15T09:05:48.820Z,99.99
2022-09-15T09:11:47.907Z,99.99
2022-09-15T09:12:47.834Z,99.99
2022-09-15T09:13:47.759Z,99.99
2022-09-15T09:14:47.684Z,99.99
2022-09-15T09:15:47.668Z,99.99
2022-09-15T09:16:47.533Z,99.99
2022-09-15T09:18:47.383Z,99.99
2022-09-15T09:19:47.309Z,99.99
2022-09-15T09:20:47.381Z,99.99
2022-09-15T09:21:47.178Z,99.99
2022-09-15T09:22:47.083Z,99.99
2022-09-15T09:23:47.008Z,99.99
2022-09-15T09:24:46.933Z,99.99
2022-09-15T09:25:46.860Z,99.99
2022-09-15T09:26:46.790Z,99.99
2022-09-15T09:27:46.710Z,99.99
2022-09-15T09:28:46.632Z,99.99
2022-09-15T09:29:46.560Z,99.99
2022-09-15T09:30:46.597Z,99.99
2022-09-15T09:31:46.415Z,99.99
2022-09-15T09:32:46.335Z,99.99
2022-09-15T09:33:47.943Z,99.99
2022-09-15T09:34:46.188Z,99.99
2022-09-15T09:35:46.110Z,99.99
2022-09-15T09:36:46.043Z,99.99
2022-09-15T09:37:45.982Z,99.99
2022-09-15T09:38:45.889Z,99.99
2022-09-15T09:39:45.862Z,99.99
2022-09-15T09:40:45.770Z,99.99
2022-09-15T09:41:45.913Z,99.99
2022-09-15T09:42:45.622Z,99.99
2022-09-15T09:43:45.652Z,99.99
2022-09-15T09:44:45.438Z,99.99
2022-09-15T09:45:45.409Z,99.99
2022-09-15T09:46:45.386Z,99.99
2022-09-15T09:47:45.416Z,99.99
2022-09-15T09:48:45.376Z,99.99
2022-09-15T09:49:45.100Z,99.99
2022-09-15T09:50:44.993Z,99.99
2022-09-15T09:51:45.114Z,99.99
2022-09-15T09:52:44.840Z,99.99
2022-09-15T09:53:44.940Z,99.99
2022-09-15T09:54:44.691Z,99.99
2022-09-15T09:55:44.616Z,99.99
2022-09-15T09:56:44.573Z,99.99
2022-09-15T09:58:44.390Z,99.99
2022-09-15T09:59:44.555Z,99.99
2022-09-15T10:00:44.279Z,99.99
2022-09-15T10:01:44.260Z,99.99
2022-09-15T10:02:44.131Z,99.99
2022-09-15T10:03:44.052Z,99.99
2022-09-15T10:04:44.044Z,99.99
2022-09-15T10:05:43.872Z,99.99
2022-09-15T10:06:43.795Z,99.99
2022-09-15T10:07:43.727Z,99.99
2022-09-15T10:08:43.647Z,99.99
2022-09-15T10:09:43.602Z,99.99
2022-09-15T10:10:43.498Z,99.99
2022-09-15T10:11:43.422Z,99.99
2022-09-15T10:12:43.349Z,99.99
2022-09-15T10:13:43.274Z,99.99
2022-09-15T10:14:43.197Z,99.99
2022-09-15T10:15:43.207Z,99.99
2022-09-15T10:16:43.205Z,99.99
2022-09-15T10:17:42.978Z,99.99
2022-09-15T10:18:42.940Z,99.99
2022-09-15T10:19:42.828Z,99.99
2022-09-15T10:20:42.753Z,99.99
2022-09-15T10:21:42.716Z,99.99
2022-09-15T10:22:42.641Z,99.99
2022-09-15T10:23:42.614Z,99.99
2022-09-15T10:24:42.699Z,99.99
2022-09-15T10:25:58.571Z,99.99
2022-09-15T10:26:42.309Z,99.99
2022-09-15T10:27:42.263Z,99.99
2022-09-15T10:28:42.430Z,99.99
2022-09-15T10:29:42.083Z,99.99
2022-09-15T10:30:42.043Z,99.99
2022-09-15T10:31:42.018Z,99.99
2022-09-15T10:32:41.859Z,99.99
2022-09-15T10:33:41.823Z,99.99
2022-09-15T10:34:41.750Z,99.99
2022-09-15T10:35:41.669Z,99.99
2022-09-15T10:36:41.598Z,99.99
2022-09-15T10:37:41.518Z,99.99
2022-09-15T10:38:41.525Z,99.99
2022-09-15T10:39:41.371Z,99.99
2022-09-15T10:40:41.556Z,99.99
2022-09-15T10:41:41.249Z,99.99
2022-09-15T10:42:41.150Z,99.99
2022-09-15T10:43:41.041Z,99.99
2022-09-15T10:44:41.004Z,99.99
2022-09-15T10:45:41.051Z,99.99
2022-09-15T10:46:40.855Z,99.99
2022-09-15T10:48:40.671Z,99.99
2022-09-15T10:50:40.556Z,99.99
2022-09-15T10:51:40.477Z,99.99
2022-09-15T10:52:40.404Z,99.99
2022-09-15T10:53:40.334Z,99.99
2022-09-15T10:54:40.224Z,99.99
2022-09-15T10:55:52.194Z,99.99
2022-09-15T10:56:40.107Z,99.99
2022-09-15T10:57:40.343Z,99.99
2022-09-15T10:58:42.305Z,99.99
2022-09-15T10:59:39.882Z,99.99
2022-09-15T11:00:39.855Z,99.99
2022-09-15T11:01:40.177Z,99.99
2022-09-15T11:02:39.865Z,99.99
2022-09-15T11:04:39.479Z,99.99
2022-09-15T11:05:39.642Z,99.99
2022-09-15T11:06:39.373Z,99.99
2022-09-15T11:07:39.291Z,99.99
2022-09-15T11:08:39.415Z,99.99
2022-09-15T11:09:39.145Z,99.99
2022-09-15T11:10:39.268Z,99.99
2022-09-15T11:11:39.200Z,99.99
2022-09-15T11:12:38.916Z,99.99
2022-09-15T11:15:21.364Z,99.99
2022-09-15T11:16:21.238Z,99.99
2022-09-15T11:17:21.415Z,99.99
2022-09-15T11:19:20.929Z,99.99
2022-09-15T11:20:20.861Z,99.99
2022-09-15T11:21:21.022Z,99.99
2022-09-15T11:22:20.848Z,99.99
2022-09-15T11:23:21.449Z,99.99
2022-09-15T11:24:20.803Z,99.99
2022-09-15T11:25:21.640Z,99.99
2022-09-15T11:26:20.455Z,99.99
2022-09-15T11:27:20.581Z,99.99
2022-09-15T11:29:20.236Z,99.99
2022-09-15T11:30:20.357Z,99.99
2022-09-15T11:31:20.182Z,99.99
2022-09-15T11:32:20.210Z,99.99
2022-09-15T11:33:20.142Z,99.99
2022-09-15T11:34:19.863Z,99.99
2022-09-15T11:35:20.226Z,99.99
2022-09-15T11:36:19.713Z,99.99
2022-09-15T11:37:19.644Z,99.99
2022-09-15T11:39:19.496Z,99.99
2022-09-15T11:40:19.710Z,99.99
2022-09-15T11:41:19.348Z,99.99
2022-09-15T11:42:19.341Z,99.99
2022-09-15T11:44:19.639Z,99.99
2022-09-15T11:45:19.670Z,99.99
2022-09-15T11:46:19.054Z,99.99
2022-09-15T11:47:18.914Z,99.99
2022-09-15T11:49:18.764Z,99.99
2022-09-15T11:50:18.694Z,99.99
2022-09-15T11:51:18.618Z,99.99
2022-09-15T11:52:18.857Z,99.99
2022-09-15T11:53:18.672Z,99.99
2022-09-15T11:54:18.817Z,99.99
2022-09-15T11:55:19.036Z,99.99
2022-09-15T11:56:18.215Z,99.99
2022-09-15T11:57:18.179Z,99.99
2022-09-15T11:58:21.849Z,99.35
2022-09-15T11:59:18.034Z,98.68
2022-09-15T12:00:17.965Z,95.35
2022-09-15T12:02:17.877Z,90.42
2022-09-15T12:03:17.870Z,88.49
2022-09-15T12:04:17.638Z,89.99
2022-09-15T12:05:17.805Z,89.99
2022-09-15T12:06:17.733Z,89.85
2022-09-15T12:07:17.435Z,90.33
2022-09-15T12:08:17.372Z,92.41
2022-09-15T12:09:17.292Z,90.23
2022-09-15T12:10:17.223Z,90.23
2022-09-15T12:11:17.193Z,89.84
2022-09-15T12:13:20.091Z,88.45
2022-09-15T12:14:04.505Z,89.55
2022-09-15T12:15:04.436Z,85.78
2022-09-15T12:16:52.316Z,83.72
2022-09-15T12:17:52.447Z,87.43
2022-09-15T12:18:51.803Z,86.60
2022-09-15T12:19:51.708Z,83.51
2022-09-15T12:20:51.640Z,84.38
2022-09-15T12:21:51.567Z,83.56
2022-09-15T12:22:51.505Z,83.47
2022-09-15T12:23:51.499Z,85.69
2022-09-15T12:24:51.371Z,85.26
2022-09-15T12:25:51.298Z,86.38
2022-09-15T12:26:51.235Z,88.08
2022-09-15T12:27:51.165Z,89.48
2022-09-15T12:28:51.220Z,90.69
2022-09-15T12:29:51.028Z,92.08
2022-09-15T12:30:50.991Z,94.20
2022-09-15T12:31:50.933Z,94.83
2022-09-15T12:32:51.062Z,97.04
2022-09-15T12:33:50.753Z,98.10
2022-09-15T12:34:53.930Z,97.52
2022-09-15T12:35:50.613Z,97.42
2022-09-15T12:36:50.672Z,98.00
2022-09-15T12:37:50.508Z,97.57
2022-09-15T12:38:51.014Z,97.28
2022-09-15T12:39:50.374Z,97.47
2022-09-15T12:42:50.665Z,98.72
2022-09-15T12:45:49.899Z,99.83
2022-09-15T12:47:50.195Z,99.99
2022-09-15T12:48:49.682Z,99.98
2022-09-15T12:49:52.228Z,99.99
2022-09-15T12:50:49.555Z,99.99
2022-09-15T12:51:49.504Z,99.68
2022-09-15T12:52:49.421Z,99.88
2022-09-15T12:54:49.278Z,98.91
2022-09-15T13:03:48.595Z,94.97
2022-09-15T13:04:48.510Z,94.92
2022-09-15T13:05:48.438Z,96.46
2022-09-15T13:06:48.437Z,95.69
2022-09-15T13:07:48.882Z,94.64
2022-09-15T13:08:49.939Z,95.79
2022-09-15T13:22:48.379Z,96.03
2022-09-15T13:43:07.400Z,81.44
2022-09-15T13:45:03.205Z,78.31
2022-09-15T13:51:39.478Z,85.49
2022-09-15T13:52:39.405Z,85.00
2022-09-15T13:53:39.335Z,86.26
2022-09-15T13:54:39.297Z,84.91
2022-09-15T13:55:39.225Z,85.68
2022-09-15T13:56:39.154Z,85.30
2022-09-15T13:58:58.783Z,86.55
2022-09-15T13:59:39.151Z,86.93
2022-09-15T14:03:42.457Z,86.46
2022-09-15T14:04:38.580Z,88.43
2022-09-15T14:05:38.477Z,87.66
2022-09-15T14:06:38.437Z,88.24
2022-09-15T14:07:38.331Z,87.95
2022-09-15T14:08:38.257Z,88.29
2022-09-15T14:09:38.186Z,88.10
2022-09-15T14:10:38.146Z,88.10
2022-09-15T14:11:38.074Z,88.96
2022-09-15T14:12:37.967Z,89.01
2022-09-15T14:13:37.896Z,89.69
2022-09-15T14:14:37.837Z,89.98
2022-09-15T14:15:37.750Z,89.40
2022-09-15T14:16:37.766Z,90.36
2022-09-15T14:17:37.640Z,88.73
2022-09-15T14:18:37.527Z,89.11
2022-09-15T14:19:37.490Z,88.24
2022-09-15T14:20:37.885Z,88.73
2022-09-15T14:21:37.548Z,87.29
2022-09-15T14:22:37.234Z,86.32
2022-09-15T14:23:37.165Z,85.75
2022-09-15T14:24:37.084Z,85.94
2022-09-15T14:25:37.041Z,86.13
2022-09-15T14:26:36.939Z,84.92
2022-09-15T14:27:36.866Z,83.73
2022-09-15T14:28:36.989Z,84.73
2022-09-15T14:29:36.717Z,84.83
2022-09-15T14:30:36.986Z,84.54
2022-09-15T14:31:36.622Z,85.21
2022-09-15T14:32:36.695Z,84.48
2022-09-15T14:33:38.154Z,83.86
2022-09-15T14:34:36.432Z,84.48
2022-09-15T14:35:36.278Z,83.42
2022-09-15T14:36:36.541Z,83.72
2022-09-15T14:37:36.748Z,83.42
2022-09-15T14:38:36.088Z,83.14
2022-09-15T14:39:36.184Z,81.60
2022-09-15T14:40:36.225Z,81.40
2022-09-15T14:41:38.901Z,82.75
2022-09-15T14:42:36.400Z,82.90
2022-09-15T14:43:36.127Z,82.81
2022-09-15T14:45:55.726Z,81.35
2022-09-15T14:46:35.503Z,83.08
2022-09-15T14:47:35.430Z,81.70
2022-09-15T14:48:35.355Z,81.60
2022-09-15T14:49:35.248Z,80.87
2022-09-15T14:50:35.238Z,81.01
2022-09-15T14:51:35.137Z,79.74
2022-09-15T14:52:35.386Z,78.23
2022-09-15T14:54:35.633Z,75.51
2022-09-15T14:55:35.156Z,74.83
2022-09-15T14:57:35.949Z,74.58
2022-09-15T14:58:35.409Z,74.42
2022-09-15T14:59:34.528Z,73.03
2022-09-15T15:00:34.540Z,72.84
2022-09-15T15:01:34.386Z,72.55
2022-09-15T15:02:34.418Z,72.49
2022-09-15T15:03:34.244Z,73.16
2022-09-15T15:04:34.382Z,74.77
2022-09-15T15:05:34.108Z,74.69
2022-09-15T15:06:34.040Z,74.27
2022-09-15T15:07:33.967Z,73.79
2022-09-15T15:09:33.831Z,75.97
2022-09-15T15:10:36.098Z,76.01
2022-09-15T15:11:33.692Z,77.84
2022-09-15T15:12:33.634Z,76.01
2022-09-15T15:13:36.581Z,75.40
2022-09-15T15:14:33.481Z,75.88
2022-09-15T15:15:33.412Z,75.92
2022-09-15T15:16:33.484Z,74.76
2022-09-15T15:17:33.272Z,73.54
2022-09-15T15:18:35.840Z,72.80
2022-09-15T15:19:33.135Z,72.42
2022-09-15T15:20:33.135Z,73.00
2022-09-15T15:21:32.993Z,73.06
2022-09-15T15:22:32.926Z,72.09
2022-09-15T15:23:33.006Z,72.73
2022-09-15T15:24:32.785Z,74.43
2022-09-15T15:25:32.716Z,75.97
2022-09-15T15:26:32.650Z,76.32
2022-09-15T15:27:32.579Z,77.13
2022-09-15T15:28:32.507Z,77.28
2022-09-15T15:29:32.440Z,76.42
2022-09-15T15:30:32.367Z,76.93
2022-09-15T15:31:32.373Z,77.42